createdAt,value
2022-08-30T00:01:01.088Z,17.46
2022-08-30T00:03:03.728Z,17.42
2022-08-30T00:05:05.868Z,17.45
2022-08-30T00:07:07.925Z,17.43
2022-08-30T00:09:10.509Z,17.42
2022-08-30T00:11:15.658Z,17.49
2022-08-30T00:13:18.485Z,17.46
2022-08-30T00:15:21.035Z,17.46
2022-08-30T00:17:23.065Z,17.47
2022-08-30T00:19:25.086Z,17.48
2022-08-30T00:21:27.263Z,17.48
2022-08-30T00:23:29.258Z,17.46
2022-08-30T00:25:31.380Z,17.51
2022-08-30T00:27:33.430Z,17.43
2022-08-30T00:29:35.456Z,17.48
2022-08-30T00:31:37.472Z,17.49
2022-08-30T00:33:39.642Z,17.45
2022-08-30T00:35:41.719Z,17.45
2022-08-30T00:37:44.429Z,17.47
2022-08-30T00:39:46.386Z,17.45
2022-08-30T00:41:48.992Z,17.45
2022-08-30T00:43:51.031Z,17.47
2022-08-30T00:45:53.268Z,17.47
2022-08-30T00:47:55.371Z,17.42
2022-08-30T00:49:57.950Z,17.44
2022-08-30T00:52:00.551Z,17.43
2022-08-30T00:54:02.633Z,17.36
2022-08-30T00:56:04.867Z,17.40
2022-08-30T00:58:08.174Z,17.42
2022-08-30T01:00:11.135Z,17.40
2022-08-30T01:02:13.290Z,17.39
2022-08-30T01:04:15.337Z,17.38
2022-08-30T01:06:17.498Z,17.41
2022-08-30T01:08:22.188Z,17.35
2022-08-30T01:10:24.203Z,17.38
2022-08-30T01:12:26.321Z,17.38
2022-08-30T01:14:28.515Z,17.33
2022-08-30T01:16:31.683Z,17.32
2022-08-30T01:18:33.764Z,17.36
2022-08-30T01:20:46.075Z,17.35
2022-08-30T01:22:50.476Z,17.31
2022-08-30T01:24:53.754Z,17.30
2022-08-30T01:26:55.750Z,17.30
2022-08-30T01:29:01.606Z,17.32
2022-08-30T01:31:03.756Z,17.24
2022-08-30T01:33:06.228Z,17.21
2022-08-30T01:35:09.006Z,17.19
2022-08-30T01:37:11.084Z,17.23
2022-08-30T01:39:17.701Z,17.17
2022-08-30T01:41:31.711Z,17.16
2022-08-30T01:43:33.698Z,17.19
2022-08-30T01:45:35.848Z,17.22
2022-08-30T01:47:37.898Z,17.19
2022-08-30T01:49:40.523Z,17.22
2022-08-30T01:51:42.598Z,17.23
2022-08-30T01:53:45.074Z,17.17
2022-08-30T01:55:47.248Z,17.14
2022-08-30T01:57:50.136Z,17.16
2022-08-30T01:59:52.461Z,17.16
2022-08-30T02:01:54.473Z,17.17
2022-08-30T02:03:56.892Z,17.15
2022-08-30T02:06:07.386Z,17.19
2022-08-30T02:08:09.414Z,17.18
2022-08-30T02:10:11.713Z,17.20
2022-08-30T02:12:14.398Z,17.15
2022-08-30T02:14:16.325Z,17.12
2022-08-30T02:16:22.820Z,17.05
2022-08-30T02:18:25.681Z,17.09
2022-08-30T02:20:27.617Z,17.03
2022-08-30T02:22:29.665Z,17.12
2022-08-30T02:24:31.789Z,17.16
2022-08-30T02:26:36.412Z,17.13
2022-08-30T02:28:49.173Z,17.13
2022-08-30T02:30:52.632Z,17.15
2022-08-30T02:32:54.727Z,17.21
2022-08-30T02:34:56.741Z,17.15
2022-08-30T02:36:58.807Z,17.14
2022-08-30T02:39:00.805Z,17.13
2022-08-30T02:41:02.925Z,17.11
2022-08-30T02:43:04.971Z,17.06
2022-08-30T02:45:08.151Z,17.02
2022-08-30T02:47:10.166Z,17.02
2022-08-30T02:51:34.272Z,16.99
2022-08-30T02:53:36.525Z,16.98
2022-08-30T02:55:39.010Z,16.96
2022-08-30T02:57:40.979Z,16.93
2022-08-30T02:59:45.422Z,16.89
2022-08-30T03:01:47.470Z,16.81
2022-08-30T03:03:50.866Z,16.77
2022-08-30T03:05:52.872Z,16.77
2022-08-30T03:07:54.870Z,16.79
2022-08-30T03:09:57.692Z,16.77
2022-08-30T03:11:59.692Z,16.75
2022-08-30T03:14:01.720Z,16.77
2022-08-30T03:16:03.803Z,16.72
2022-08-30T03:18:06.041Z,16.73
2022-08-30T03:20:09.192Z,16.72
2022-08-30T03:22:11.571Z,16.70
2022-08-30T03:24:13.821Z,16.64
2022-08-30T03:26:15.925Z,16.71
2022-08-30T03:28:17.972Z,16.69
2022-08-30T03:30:20.407Z,16.72
2022-08-30T03:32:22.761Z,16.70
2022-08-30T03:34:25.077Z,16.69
2022-08-30T03:36:27.091Z,16.75
2022-08-30T03:38:29.106Z,16.72
2022-08-30T03:40:31.127Z,16.68
2022-08-30T03:42:33.456Z,16.61
2022-08-30T03:44:35.689Z,16.62
2022-08-30T03:46:39.202Z,16.65
2022-08-30T03:48:41.302Z,16.65
2022-08-30T03:50:43.315Z,16.63
2022-08-30T03:52:45.884Z,16.63
2022-08-30T03:54:47.877Z,16.62
2022-08-30T03:56:49.884Z,16.62
2022-08-30T03:58:51.917Z,16.62
2022-08-30T04:00:54.027Z,16.65
2022-08-30T04:02:56.072Z,16.69
2022-08-30T04:04:58.083Z,16.67
2022-08-30T04:07:00.109Z,16.67
2022-08-30T04:09:02.178Z,16.64
2022-08-30T04:11:05.082Z,16.63
2022-08-30T04:13:07.512Z,16.67
2022-08-30T04:15:11.361Z,16.64
2022-08-30T04:17:13.447Z,16.64
2022-08-30T04:19:15.544Z,16.65
2022-08-30T04:21:17.966Z,16.64
2022-08-30T04:23:20.244Z,16.60
2022-08-30T04:25:22.247Z,16.60
2022-08-30T04:27:24.311Z,16.58
2022-08-30T04:29:26.372Z,16.55
2022-08-30T04:31:28.758Z,16.61
2022-08-30T04:33:30.856Z,16.57
2022-08-30T04:35:36.943Z,16.64
2022-08-30T04:37:39.324Z,16.65
2022-08-30T04:39:43.456Z,16.66
2022-08-30T04:41:45.492Z,16.63
2022-08-30T04:43:48.475Z,16.67
2022-08-30T04:45:52.388Z,16.64
2022-08-30T04:47:54.474Z,16.59
2022-08-30T04:49:58.575Z,16.62
2022-08-30T04:52:00.572Z,16.66
2022-08-30T04:54:02.593Z,16.68
2022-08-30T04:56:13.455Z,16.74
2022-08-30T04:58:15.559Z,16.75
2022-08-30T05:00:17.958Z,16.76
2022-08-30T05:02:20.095Z,16.72
2022-08-30T05:04:22.168Z,16.72
2022-08-30T05:06:25.259Z,16.80
2022-08-30T05:08:27.229Z,16.79
2022-08-30T05:10:29.825Z,16.83
2022-08-30T05:12:31.815Z,16.88
2022-08-30T05:14:34.136Z,16.88
2022-08-30T05:16:36.379Z,16.85
2022-08-30T05:18:38.461Z,16.94
2022-08-30T05:20:40.530Z,16.94
2022-08-30T05:22:50.357Z,17.01
2022-08-30T05:24:55.718Z,17.09
2022-08-30T05:26:58.431Z,17.11
2022-08-30T05:29:00.547Z,17.10
2022-08-30T05:31:02.932Z,17.12
2022-08-30T05:33:05.075Z,17.18
2022-08-30T05:35:08.809Z,17.24
2022-08-30T05:37:10.835Z,17.29
2022-08-30T05:39:14.255Z,17.32
2022-08-30T05:41:16.375Z,17.35
2022-08-30T05:43:18.437Z,17.37
2022-08-30T05:45:20.528Z,17.38
2022-08-30T05:47:22.655Z,17.43
2022-08-30T05:49:24.667Z,17.45
2022-08-30T05:51:28.824Z,17.47
2022-08-30T05:53:30.869Z,17.52
2022-08-30T05:55:33.088Z,17.56
2022-08-30T05:57:41.208Z,17.62
2022-08-30T05:59:43.204Z,17.63
2022-08-30T06:01:46.585Z,17.63
2022-08-30T06:03:48.713Z,17.64
2022-08-30T06:05:50.862Z,17.72
2022-08-30T06:07:52.892Z,17.79
2022-08-30T06:09:54.906Z,17.84
2022-08-30T06:11:57.754Z,17.87
2022-08-30T06:14:02.919Z,17.81
2022-08-30T06:16:05.214Z,17.93
2022-08-30T06:18:07.250Z,18.00
2022-08-30T06:20:10.234Z,18.04
2022-08-30T06:22:12.217Z,18.03
2022-08-30T06:24:14.626Z,18.06
2022-08-30T06:26:16.906Z,18.03
2022-08-30T06:28:18.968Z,18.10
2022-08-30T06:30:21.077Z,18.13
2022-08-30T06:32:23.131Z,18.20
2022-08-30T06:34:25.141Z,18.22
2022-08-30T06:36:27.260Z,18.29
2022-08-30T06:38:29.262Z,18.38
2022-08-30T06:40:31.321Z,18.38
2022-08-30T06:42:33.809Z,18.43
2022-08-30T06:44:35.830Z,18.52
2022-08-30T06:46:38.753Z,18.53
2022-08-30T06:48:43.025Z,18.51
2022-08-30T06:50:55.386Z,18.61
2022-08-30T06:53:04.404Z,18.68
2022-08-30T06:55:06.878Z,18.73
2022-08-30T06:57:08.880Z,18.76
2022-08-30T06:59:10.888Z,18.73
2022-08-30T07:01:17.401Z,18.80
2022-08-30T07:03:19.645Z,18.76
2022-08-30T07:05:23.732Z,18.83
2022-08-30T07:07:25.720Z,18.97
2022-08-30T07:09:27.811Z,19.04
2022-08-30T07:11:39.116Z,19.09
2022-08-30T07:13:41.207Z,19.16
2022-08-30T07:15:44.103Z,19.22
2022-08-30T07:18:04.978Z,19.17
2022-08-30T07:20:07.587Z,19.21
2022-08-30T07:22:09.580Z,19.20
2022-08-30T07:24:12.574Z,19.18
2022-08-30T07:26:15.431Z,19.34
2022-08-30T07:28:17.452Z,19.37
2022-08-30T07:30:19.479Z,19.41
2022-08-30T07:32:21.461Z,19.41
2022-08-30T07:34:26.945Z,19.49
2022-08-30T07:36:29.665Z,19.56
2022-08-30T07:38:31.841Z,19.61
2022-08-30T07:40:33.869Z,19.72
2022-08-30T07:42:35.974Z,19.73
2022-08-30T07:44:38.029Z,19.75
2022-08-30T07:46:40.162Z,19.85
2022-08-30T07:48:42.233Z,19.83
2022-08-30T07:50:46.648Z,19.96
2022-08-30T07:52:48.635Z,19.95
2022-08-30T07:54:52.801Z,19.99
2022-08-30T07:56:55.997Z,19.97
2022-08-30T07:58:58.008Z,20.06
2022-08-30T08:01:00.404Z,20.13
2022-08-30T08:03:07.553Z,20.17
2022-08-30T08:05:13.932Z,20.29
2022-08-30T08:07:18.994Z,20.19
2022-08-30T08:09:21.063Z,20.19
2022-08-30T08:11:26.842Z,20.19
2022-08-30T08:13:32.733Z,20.21
2022-08-30T08:15:38.988Z,20.36
2022-08-30T08:17:41.048Z,20.44
2022-08-30T08:19:43.072Z,20.53
2022-08-30T08:21:45.165Z,20.69
2022-08-30T08:23:47.170Z,20.63
2022-08-30T08:25:49.156Z,20.75
2022-08-30T08:27:51.952Z,20.86
2022-08-30T08:29:53.974Z,20.99
2022-08-30T08:31:57.843Z,20.99
2022-08-30T08:36:06.223Z,21.23
2022-08-30T08:38:11.253Z,21.48
2022-08-30T08:40:18.625Z,21.58
2022-08-30T08:42:44.826Z,21.73
2022-08-30T08:44:58.841Z,21.80
2022-08-30T08:47:18.057Z,21.88
2022-08-30T08:49:20.354Z,22.14
2022-08-30T08:51:44.779Z,22.38
2022-08-30T08:53:53.488Z,22.49
2022-08-30T08:55:55.467Z,22.42
2022-08-30T08:57:57.499Z,21.89
2022-08-30T08:59:59.520Z,22.00
2022-08-30T09:02:03.310Z,22.01
2022-08-30T09:04:30.572Z,21.71
2022-08-30T09:06:54.412Z,21.78
2022-08-30T09:08:56.418Z,21.93
2022-08-30T09:11:05.546Z,21.84
2022-08-30T09:13:07.658Z,21.89
2022-08-30T09:15:30.632Z,21.92
2022-08-30T09:17:33.155Z,22.12
2022-08-30T09:19:40.357Z,22.33
2022-08-30T09:21:42.466Z,22.55
2022-08-30T09:23:50.248Z,22.68
2022-08-30T09:25:54.584Z,23.04
2022-08-30T09:28:13.266Z,23.06
2022-08-30T09:30:27.508Z,22.97
2022-08-30T09:32:32.454Z,22.97
2022-08-30T09:34:34.458Z,23.09
2022-08-30T09:36:44.095Z,23.27
2022-08-30T09:38:46.087Z,23.34
2022-08-30T09:41:00.155Z,23.09
2022-08-30T09:43:10.187Z,22.93
2022-08-30T09:45:28.431Z,23.03
2022-08-30T09:47:31.769Z,22.82
2022-08-30T09:49:43.264Z,23.24
2022-08-30T09:51:54.267Z,23.83
2022-08-30T09:54:17.655Z,24.34
2022-08-30T09:56:36.414Z,24.98
2022-08-30T09:59:00.594Z,25.74
2022-08-30T10:01:09.472Z,26.59
2022-08-30T10:03:40.216Z,27.13
2022-08-30T10:06:01.866Z,27.13
2022-08-30T10:08:15.708Z,27.19
2022-08-30T10:10:29.581Z,28.21
2022-08-30T10:13:16.824Z,28.45
2022-08-30T10:15:31.752Z,28.47
2022-08-30T10:17:57.781Z,29.00
2022-08-30T10:20:08.900Z,29.49
2022-08-30T10:22:13.890Z,30.12
2022-08-30T10:24:21.034Z,29.56
2022-08-30T10:26:35.300Z,29.35
2022-08-30T10:28:50.263Z,28.74
2022-08-30T10:31:27.778Z,27.79
2022-08-30T10:33:47.304Z,28.40
2022-08-30T10:35:53.462Z,28.27
2022-08-30T10:37:59.037Z,29.27
2022-08-30T10:40:50.603Z,29.89
2022-08-30T10:42:53.350Z,30.65
2022-08-30T10:45:11.978Z,30.64
2022-08-30T10:47:51.734Z,30.98
2022-08-30T10:50:16.387Z,30.59
2022-08-30T10:52:35.471Z,31.04
2022-08-30T10:54:59.674Z,31.33
2022-08-30T10:57:02.622Z,31.41
2022-08-30T10:59:05.434Z,32.55
2022-08-30T11:01:34.075Z,32.34
2022-08-30T11:04:05.325Z,32.74
2022-08-30T11:06:39.001Z,31.92
2022-08-30T11:09:04.739Z,31.76
2022-08-30T11:11:38.666Z,31.28
2022-08-30T11:13:42.951Z,31.51
2022-08-30T11:16:06.378Z,31.75
2022-08-30T11:18:13.064Z,32.05
2022-08-30T11:20:50.111Z,32.25
2022-08-30T11:26:06.125Z,32.77
2022-08-30T11:28:09.621Z,33.19
2022-08-30T11:30:27.260Z,32.66
2022-08-30T11:33:11.158Z,32.54
2022-08-30T11:35:13.952Z,31.98
2022-08-30T11:37:37.530Z,31.10
2022-08-30T11:39:45.298Z,30.67
2022-08-30T11:41:48.273Z,31.10
2022-08-30T11:43:51.482Z,30.77
2022-08-30T11:45:56.886Z,30.31
2022-08-30T11:48:05.995Z,30.49
2022-08-30T11:50:52.653Z,30.14
2022-08-30T11:53:21.999Z,30.30
2022-08-30T11:55:39.139Z,30.76
2022-08-30T11:57:55.863Z,31.28
2022-08-30T12:00:12.090Z,31.66
2022-08-30T12:03:08.508Z,31.21
2022-08-30T12:05:42.969Z,31.87
2022-08-30T12:08:00.002Z,31.25
2022-08-30T12:10:03.037Z,31.71
2022-08-30T12:12:36.779Z,32.06
2022-08-30T12:14:51.962Z,32.46
2022-08-30T12:17:12.745Z,31.42
2022-08-30T12:19:19.946Z,31.32
2022-08-30T12:21:28.199Z,31.64
2022-08-30T12:23:35.143Z,31.07
2022-08-30T12:25:37.157Z,31.35
2022-08-30T12:27:39.344Z,31.64
2022-08-30T12:29:54.534Z,31.82
2022-08-30T12:32:15.031Z,31.57
2022-08-30T12:34:27.095Z,30.95
2022-08-30T12:36:52.689Z,31.18
2022-08-30T12:39:17.169Z,31.28
2022-08-30T12:41:20.035Z,31.47
2022-08-30T12:43:52.154Z,31.54
2022-08-30T12:45:54.557Z,31.76
2022-08-30T12:48:01.825Z,32.38
2022-08-30T12:50:04.771Z,32.16
2022-08-30T12:52:31.600Z,31.35
2022-08-30T12:54:33.623Z,31.00
2022-08-30T12:56:54.179Z,31.63
2022-08-30T12:58:56.232Z,31.67
2022-08-30T13:01:31.292Z,31.97
2022-08-30T13:03:39.059Z,32.36
2022-08-30T13:05:44.516Z,32.82
2022-08-30T13:07:47.342Z,31.90
2022-08-30T13:09:49.291Z,31.34
2022-08-30T13:11:51.807Z,30.84
2022-08-30T13:14:18.475Z,30.44
2022-08-30T13:16:45.416Z,30.40
2022-08-30T13:18:55.159Z,29.95
2022-08-30T13:21:25.818Z,29.00
2022-08-30T13:23:27.824Z,28.80
2022-08-30T13:25:32.921Z,28.78
2022-08-30T13:27:36.942Z,28.77
2022-08-30T13:29:40.540Z,28.51
2022-08-30T13:31:44.259Z,28.81
2022-08-30T13:33:46.322Z,28.32
2022-08-30T13:35:48.349Z,28.39
2022-08-30T13:37:51.683Z,28.06
2022-08-30T13:39:54.026Z,27.94
2022-08-30T13:42:31.285Z,28.35
2022-08-30T13:44:18.978Z,28.94
2022-08-30T13:46:21.255Z,29.55
2022-08-30T13:48:24.925Z,30.38
2022-08-30T13:50:27.325Z,31.05
2022-08-30T13:52:29.256Z,30.81
2022-08-30T13:54:32.098Z,31.80
2022-08-30T13:56:35.260Z,32.73
2022-08-30T13:58:37.306Z,32.84
2022-08-30T14:00:39.352Z,32.82
2022-08-30T14:02:45.464Z,33.64
2022-08-30T14:04:51.062Z,34.34
2022-08-30T14:09:15.113Z,34.13
2022-08-30T14:11:19.511Z,34.56
2022-08-30T14:13:24.122Z,34.20
2022-08-30T14:15:26.237Z,33.09
2022-08-30T14:17:32.749Z,32.69
2022-08-30T14:19:34.770Z,32.27
2022-08-30T14:21:36.888Z,32.59
2022-08-30T14:23:38.896Z,33.32
2022-08-30T14:25:41.260Z,32.34
2022-08-30T14:27:43.286Z,31.75
2022-08-30T14:29:45.362Z,32.42
2022-08-30T14:31:51.408Z,32.33
2022-08-30T14:33:53.512Z,31.76
2022-08-30T14:35:55.645Z,32.37
2022-08-30T14:37:57.674Z,33.28
2022-08-30T14:40:01.009Z,33.62
2022-08-30T14:42:07.402Z,33.48
2022-08-30T14:44:10.516Z,32.80
2022-08-30T14:46:12.945Z,32.80
2022-08-30T14:48:15.149Z,33.34
2022-08-30T14:50:17.277Z,33.97
2022-08-30T14:52:19.931Z,34.18
2022-08-30T14:54:25.401Z,34.65
2022-08-30T14:56:27.701Z,34.42
2022-08-30T14:58:29.603Z,33.90
2022-08-30T15:00:31.649Z,34.61
2022-08-30T15:02:33.640Z,34.28
2022-08-30T15:04:35.899Z,34.75
2022-08-30T15:06:39.175Z,35.50
2022-08-30T15:08:41.781Z,35.48
2022-08-30T15:10:49.738Z,35.58
2022-08-30T15:12:56.162Z,35.34
2022-08-30T15:14:58.597Z,35.81
2022-08-30T15:17:02.674Z,34.78
2022-08-30T15:19:07.212Z,34.53
2022-08-30T15:21:10.721Z,34.55
2022-08-30T15:23:12.737Z,34.66
2022-08-30T15:25:18.997Z,33.53
2022-08-30T15:27:24.016Z,32.94
2022-08-30T15:29:26.041Z,32.49
2022-08-30T15:31:28.549Z,31.43
2022-08-30T15:33:30.659Z,31.13
2022-08-30T15:35:33.606Z,31.11
2022-08-30T15:37:37.620Z,30.62
2022-08-30T15:39:39.854Z,29.93
2022-08-30T15:41:43.780Z,30.23
2022-08-30T15:43:46.670Z,29.69
2022-08-30T15:45:48.572Z,28.96
2022-08-30T15:47:50.565Z,28.46
2022-08-30T15:49:56.926Z,28.46
2022-08-30T15:52:01.806Z,27.90
2022-08-30T15:54:05.040Z,28.13
2022-08-30T15:56:07.267Z,27.94
2022-08-30T15:58:09.830Z,27.35
2022-08-30T16:00:13.521Z,27.25
2022-08-30T16:02:15.695Z,26.94
2022-08-30T16:04:18.876Z,27.04
2022-08-30T16:06:25.692Z,26.96
2022-08-30T16:08:28.431Z,26.48
2022-08-30T16:10:30.430Z,26.54
2022-08-30T16:12:32.510Z,26.46
2022-08-30T16:14:34.858Z,26.16
2022-08-30T16:16:41.022Z,26.05
2022-08-30T16:18:43.220Z,25.93
2022-08-30T16:20:45.316Z,25.84
2022-08-30T16:22:47.386Z,25.75
2022-08-30T16:24:49.778Z,25.35
2022-08-30T16:26:51.803Z,25.16
2022-08-30T16:28:54.225Z,24.94
2022-08-30T16:30:56.203Z,24.63
2022-08-30T16:32:58.460Z,24.49
2022-08-30T16:35:00.570Z,24.21
2022-08-30T16:37:02.888Z,24.15
2022-08-30T16:39:05.858Z,24.05
2022-08-30T16:41:16.559Z,23.90
2022-08-30T16:43:21.338Z,23.97
2022-08-30T16:45:24.065Z,23.86
2022-08-30T16:47:26.247Z,23.79
2022-08-30T16:49:28.435Z,23.68
2022-08-30T16:51:31.734Z,23.67
2022-08-30T16:53:33.798Z,23.61
2022-08-30T16:55:37.761Z,23.42
2022-08-30T16:57:39.793Z,23.20
2022-08-30T16:59:42.278Z,23.04
2022-08-30T17:01:44.747Z,23.02
2022-08-30T17:03:46.915Z,22.78
2022-08-30T17:05:49.919Z,22.68
2022-08-30T17:07:52.406Z,22.56
2022-08-30T17:09:54.630Z,22.40
2022-08-30T17:11:57.856Z,22.40
2022-08-30T17:14:01.625Z,22.26
2022-08-30T17:16:04.990Z,22.27
2022-08-30T17:18:07.631Z,22.32
2022-08-30T17:20:10.318Z,22.07
2022-08-30T17:22:13.036Z,22.03
2022-08-30T17:24:15.025Z,22.02
2022-08-30T17:26:17.669Z,21.95
2022-08-30T17:28:20.024Z,21.83
2022-08-30T17:30:23.988Z,21.89
2022-08-30T17:32:26.012Z,21.86
2022-08-30T17:34:28.190Z,21.78
2022-08-30T17:36:30.308Z,21.80
2022-08-30T17:38:35.216Z,21.83
2022-08-30T17:40:39.459Z,21.86
2022-08-30T17:42:42.445Z,21.85
2022-08-30T17:44:44.953Z,21.45
2022-08-30T17:46:47.069Z,21.30
2022-08-30T17:48:57.812Z,21.30
2022-08-30T17:51:03.220Z,21.24
2022-08-30T17:53:05.605Z,21.26
2022-08-30T17:55:09.527Z,21.10
2022-08-30T17:57:13.165Z,21.14
2022-08-30T17:59:16.423Z,21.05
2022-08-30T18:01:19.592Z,21.05
2022-08-30T18:03:23.183Z,21.02
2022-08-30T18:05:25.602Z,20.81
2022-08-30T18:07:27.775Z,20.73
2022-08-30T18:09:33.824Z,20.67
2022-08-30T18:11:37.395Z,20.55
2022-08-30T18:13:39.430Z,20.53
2022-08-30T18:15:42.103Z,20.45
2022-08-30T18:17:49.046Z,20.43
2022-08-30T18:19:51.897Z,20.43
2022-08-30T18:21:53.988Z,20.37
2022-08-30T18:23:56.398Z,20.37
2022-08-30T18:26:00.194Z,20.17
2022-08-30T18:28:03.958Z,20.28
2022-08-30T18:30:07.760Z,20.15
2022-08-30T18:32:13.856Z,20.07
2022-08-30T18:34:15.882Z,20.07
2022-08-30T18:36:18.148Z,20.07
2022-08-30T18:38:23.645Z,20.00
2022-08-30T18:40:25.923Z,19.96
2022-08-30T18:42:28.261Z,19.96
2022-08-30T18:44:33.344Z,19.93
2022-08-30T18:46:35.773Z,19.78
2022-08-30T18:48:38.068Z,19.75
2022-08-30T18:50:43.194Z,19.75
2022-08-30T18:52:46.037Z,19.75
2022-08-30T18:54:52.332Z,19.79
2022-08-30T18:56:55.097Z,19.64
2022-08-30T18:58:57.111Z,19.63
2022-08-30T19:00:59.121Z,19.59
2022-08-30T19:03:01.882Z,19.53
2022-08-30T19:05:04.612Z,19.44
2022-08-30T19:07:07.162Z,19.30
2022-08-30T19:09:09.901Z,19.33
2022-08-30T19:11:11.939Z,19.26
2022-08-30T19:13:14.175Z,19.28
2022-08-30T19:15:16.372Z,19.24
2022-08-30T19:17:19.551Z,19.19
2022-08-30T19:19:21.806Z,19.17
2022-08-30T19:21:23.989Z,19.09
2022-08-30T19:23:27.910Z,19.00
2022-08-30T19:25:36.061Z,18.96
2022-08-30T19:27:40.098Z,18.94
2022-08-30T19:29:42.625Z,18.91
2022-08-30T19:31:46.775Z,18.87
2022-08-30T19:33:48.820Z,18.83
2022-08-30T19:35:51.715Z,18.78
2022-08-30T19:37:53.831Z,18.76
2022-08-30T19:39:56.144Z,18.72
2022-08-30T19:42:02.618Z,18.76
2022-08-30T19:44:05.304Z,18.75
2022-08-30T19:46:07.622Z,18.62
2022-08-30T19:48:10.392Z,18.62
2022-08-30T19:50:12.993Z,18.51
2022-08-30T19:52:15.067Z,18.52
2022-08-30T19:54:17.391Z,18.48
2022-08-30T19:56:19.459Z,18.44
2022-08-30T19:58:21.474Z,18.45
2022-08-30T20:00:23.596Z,18.38
2022-08-30T20:02:25.947Z,18.35
2022-08-30T20:04:29.825Z,18.34
2022-08-30T20:06:32.115Z,18.24
2022-08-30T20:08:34.314Z,18.21
2022-08-30T20:10:36.575Z,18.20
2022-08-30T20:12:39.988Z,18.18
2022-08-30T20:14:47.684Z,18.13
2022-08-30T20:16:51.453Z,18.09
2022-08-30T20:18:53.701Z,18.04
2022-08-30T20:20:56.039Z,17.97
2022-08-30T20:22:58.091Z,17.95
2022-08-30T20:25:00.161Z,17.93
2022-08-30T20:27:02.811Z,17.93
2022-08-30T20:29:05.541Z,17.84
2022-08-30T20:31:08.136Z,17.71
2022-08-30T20:33:10.552Z,17.72
2022-08-30T20:35:16.318Z,17.72
2022-08-30T20:37:19.354Z,17.61
2022-08-30T20:39:21.409Z,17.55
2022-08-30T20:41:24.080Z,17.55
2022-08-30T20:43:27.638Z,17.40
2022-08-30T20:45:30.986Z,17.28
2022-08-30T20:47:35.030Z,17.32
2022-08-30T20:49:37.363Z,17.35
2022-08-30T20:51:39.523Z,17.22
2022-08-30T20:53:41.940Z,17.20
2022-08-30T20:55:46.696Z,17.18
2022-08-30T20:57:48.726Z,17.08
2022-08-30T20:59:50.820Z,17.10
2022-08-30T21:01:52.897Z,17.10
2022-08-30T21:03:57.043Z,17.10
2022-08-30T21:05:59.037Z,17.06
2022-08-30T21:08:01.042Z,16.99
2022-08-30T21:10:09.805Z,16.99
2022-08-30T21:12:11.850Z,16.96
2022-08-30T21:14:13.953Z,16.96
2022-08-30T21:16:18.308Z,16.97
2022-08-30T21:18:28.468Z,16.89
2022-08-30T21:20:30.508Z,16.86
2022-08-30T21:22:32.496Z,16.75
2022-08-30T21:24:35.164Z,16.77
2022-08-30T21:26:38.467Z,16.65
2022-08-30T21:28:40.444Z,16.68
2022-08-30T21:30:42.562Z,16.63
2022-08-30T21:32:44.891Z,16.60
2022-08-30T21:35:05.428Z,16.60
2022-08-30T21:37:07.447Z,16.62
2022-08-30T21:39:09.685Z,16.62
2022-08-30T21:41:12.860Z,16.61
2022-08-30T21:43:15.026Z,16.65
2022-08-30T21:45:17.128Z,16.57
2022-08-30T21:47:23.211Z,16.49
2022-08-30T21:49:26.051Z,16.57
2022-08-30T21:51:29.039Z,16.55
2022-08-30T21:53:31.180Z,16.51
2022-08-30T21:55:33.429Z,16.51
2022-08-30T21:57:35.469Z,16.52
2022-08-30T21:59:37.643Z,16.46
2022-08-30T22:01:40.377Z,16.47
2022-08-30T22:03:42.757Z,16.37
2022-08-30T22:05:52.448Z,16.37
2022-08-30T22:07:54.553Z,16.35
2022-08-30T22:09:56.698Z,16.36
2022-08-30T22:11:58.847Z,16.35
2022-08-30T22:14:01.271Z,16.32
2022-08-30T22:16:04.824Z,16.30
2022-08-30T22:18:06.939Z,16.33
2022-08-30T22:20:09.685Z,16.37
2022-08-30T22:22:13.554Z,16.36
2022-08-30T22:24:16.620Z,16.43
2022-08-30T22:26:19.897Z,16.40
2022-08-30T22:28:22.082Z,16.36
2022-08-30T22:30:24.256Z,16.40
2022-08-30T22:32:26.418Z,16.36
2022-08-30T22:34:28.733Z,16.29
2022-08-30T22:36:33.005Z,16.27
2022-08-30T22:38:35.371Z,16.28
2022-08-30T22:40:37.919Z,16.32
2022-08-30T22:42:40.103Z,16.37
2022-08-30T22:44:51.878Z,16.46
2022-08-30T22:46:54.070Z,16.40
2022-08-30T22:48:56.267Z,16.33
2022-08-30T22:50:58.399Z,16.28
2022-08-30T22:53:00.585Z,16.18
2022-08-30T22:55:04.345Z,16.12
2022-08-30T22:57:06.617Z,16.04
2022-08-30T22:59:08.922Z,16.03
2022-08-30T23:01:27.701Z,16.02
2022-08-30T23:03:29.944Z,16.04
2022-08-30T23:05:32.159Z,15.98
2022-08-30T23:07:35.525Z,16.05
2022-08-30T23:09:37.555Z,16.13
2022-08-30T23:11:39.601Z,16.21
2022-08-30T23:13:42.247Z,16.15
2022-08-30T23:15:44.249Z,16.06
2022-08-30T23:17:46.273Z,16.02
2022-08-30T23:19:48.295Z,15.97
2022-08-30T23:21:51.016Z,15.99
2022-08-30T23:24:12.014Z,15.97
2022-08-30T23:26:32.727Z,16.05
2022-08-30T23:28:53.268Z,15.98
2022-08-30T23:31:14.094Z,16.02
2022-08-30T23:33:34.966Z,15.95
2022-08-30T23:35:55.546Z,15.95
2022-08-30T23:38:21.888Z,15.91
2022-08-30T23:40:42.604Z,15.90
2022-08-30T23:43:03.534Z,15.98
2022-08-30T23:45:24.864Z,15.94
2022-08-30T23:47:45.959Z,15.96
2022-08-30T23:50:06.701Z,15.90
2022-08-30T23:52:27.269Z,15.89
2022-08-30T23:54:47.808Z,15.89
2022-08-30T23:57:08.731Z,15.96
2022-08-30T23:59:29.401Z,15.95
